Time;durP1;ratioP1;P1;durP2;ratioP2;P2;SDS_P1;SDS_P2;PMS_P1;PMS_P2;Temp;Humidity;BMP_temperature;BMP_pressure;BME280_temperature;BME280_humidity;BME280_pressure;Samples;Min_cycle;Max_cycle;Signal;HPM_P1;HPM_P2
2021/08/04 00:05:28;;;;;;;4.13;1.92;;;27.50;26.10;;;;;;21045103;27;80429;-73
2021/08/04 00:15:30;;;;;;;3.83;2.10;;;27.40;26.70;;;;;;21050555;27;82651;-71
2021/08/04 00:25:32;;;;;;;4.43;1.60;;;27.30;27.30;;;;;;21049758;27;80740;-71
2021/08/04 00:35:36;;;;;;;3.22;2.10;;;27.20;28.00;;;;;;21048989;27;80705;-70
2021/08/04 00:45:40;;;;;;;3.75;2.15;;;27.20;28.80;;;;;;21065902;27;79957;-71
2021/08/04 00:55:42;;;;;;;6.68;1.90;;;27.00;29.70;;;;;;21046551;27;81398;-71
2021/08/04 01:05:53;;;;;;;6.22;1.95;;;26.90;30.70;;;;;;21046541;27;81150;-71
2021/08/04 01:16:13;;;;;;;3.65;1.40;;;26.70;32.20;;;;;;21062412;27;80513;-74
2021/08/04 01:26:31;;;;;;;3.10;1.70;;;26.60;33.90;;;;;;21045189;27;80991;-71
2021/08/04 01:36:40;;;;;;;3.50;1.42;;;26.40;35.00;;;;;;21045472;27;80930;-71
2021/08/04 01:46:52;;;;;;;5.35;1.67;;;26.20;36.60;;;;;;21045411;27;81144;-71
2021/08/04 01:57:05;;;;;;;3.95;1.35;;;26.10;37.50;;;;;;21043401;27;79968;-72
2021/08/04 02:07:49;;;;;;;2.80;1.60;;;25.90;38.30;;;;;;21042792;27;80719;-71
2021/08/04 02:18:06;;;;;;;4.75;2.08;;;25.90;38.60;;;;;;21059659;27;81677;-70
2021/08/04 02:28:18;;;;;;;5.32;1.60;;;25.90;39.20;;;;;;21042183;27;83601;-69
2021/08/04 02:38:22;;;;;;;3.42;1.92;;;25.80;39.80;;;;;;21058648;27;80575;-70
2021/08/04 02:48:30;;;;;;;3.03;1.58;;;25.70;40.20;;;;;;21040299;27;80741;-72
2021/08/04 02:58:37;;;;;;;2.28;1.30;;;25.60;40.60;;;;;;21039433;27;81023;-70
2021/08/04 03:08:42;;;;;;;3.58;1.70;;;25.50;40.90;;;;;;21055870;27;81953;-70
2021/08/04 03:18:47;;;;;;;6.40;2.30;;;25.30;41.70;;;;;;21055505;27;80774;-70
2021/08/04 03:28:52;;;;;;;4.55;2.00;;;25.30;42.30;;;;;;21055274;27;81954;-71
2021/08/04 03:38:59;;;;;;;4.22;2.53;;;25.20;42.50;;;;;;21043219;27;80518;-70
2021/08/04 03:49:02;;;;;;;5.80;2.75;;;25.00;42.80;;;;;;21050764;27;80953;-69
2021/08/04 03:59:06;;;;;;;6.90;2.72;;;24.80;43.30;;;;;;21050281;27;80638;-71
2021/08/04 04:09:08;;;;;;;5.10;2.53;;;24.60;44.30;;;;;;21049199;27;82321;-69
2021/08/04 04:19:13;;;;;;;6.38;2.88;;;24.50;45.40;;;;;;21048060;27;80694;-72
2021/08/04 04:29:18;;;;;;;5.82;2.72;;;24.40;46.10;;;;;;21066254;27;80761;-70
2021/08/04 04:39:21;;;;;;;6.25;2.47;;;24.40;46.60;;;;;;21046836;27;80736;-72
2021/08/04 04:49:29;;;;;;;6.18;2.40;;;24.30;47.30;;;;;;21064062;27;80821;-70
2021/08/04 04:59:32;;;;;;;4.53;1.73;;;24.30;47.80;;;;;;21045563;27;80707;-72
2021/08/04 05:09:34;;;;;;;5.38;2.00;;;24.20;48.30;;;;;;21045371;27;80854;-71
2021/08/04 05:19:36;;;;;;;8.85;2.95;;;24.20;48.30;;;;;;21043594;27;81138;-69
2021/08/04 05:29:39;;;;;;;6.55;1.75;;;24.20;48.20;;;;;;21043705;27;80680;-74
2021/08/04 05:39:41;;;;;;;4.10;1.48;;;24.10;48.70;;;;;;21085848;27;81727;-70
2021/08/04 05:49:45;;;;;;;1.92;1.20;;;24.00;49.00;;;;;;21111262;27;81796;-72
2021/08/04 05:59:47;;;;;;;2.88;1.40;;;24.00;49.20;;;;;;21115336;27;81973;-70
2021/08/04 06:10:12;;;;;;;5.15;1.70;;;24.20;48.90;;;;;;21113071;27;81917;-69
2021/08/04 06:20:13;;;;;;;5.73;1.60;;;24.30;48.80;;;;;;21131748;27;81581;-71
2021/08/04 06:30:14;;;;;;;5.00;0.90;;;24.40;48.30;;;;;;21125388;27;81273;-72
2021/08/04 06:40:18;;;;;;;6.97;1.38;;;24.50;47.80;;;;;;21110364;27;81289;-73
2021/08/04 06:50:19;;;;;;;7.13;1.30;;;24.50;48.90;;;;;;21108013;27;81687;-71
2021/08/04 07:00:20;;;;;;;7.22;1.20;;;24.40;48.50;;;;;;21111071;27;80892;-73
2021/08/04 07:10:21;;;;;;;6.23;1.20;;;24.50;48.30;;;;;;21107194;27;81478;-74
2021/08/04 07:20:22;;;;;;;4.43;1.33;;;24.80;47.80;;;;;;21106099;27;80356;-73
2021/08/04 07:30:25;;;;;;;6.15;0.90;;;25.00;47.30;;;;;;21104272;27;81706;-71
2021/08/04 07:40:26;;;;;;;1.73;0.60;;;25.20;46.80;;;;;;21106816;27;81693;-73
2021/08/04 07:50:27;;;;;;;6.40;1.00;;;25.30;46.50;;;;;;21128346;27;81248;-69
2021/08/04 08:00:28;;;;;;;5.10;0.67;;;25.40;46.10;;;;;;21103250;27;81473;-65
2021/08/04 08:10:33;;;;;;;3.25;0.82;;;25.50;45.70;;;;;;21125998;27;81337;-65
2021/08/04 08:20:36;;;;;;;3.75;1.13;;;25.60;45.90;;;;;;21121689;27;81749;-66
2021/08/04 08:30:38;;;;;;;3.20;1.25;;;25.70;44.90;;;;;;21122122;27;82019;-66
2021/08/04 08:40:40;;;;;;;5.97;1.80;;;26.20;44.00;;;;;;21117588;27;81341;-69
2021/08/04 08:50:44;;;;;;;2.25;1.13;;;26.50;42.60;;;;;;21120277;27;81324;-68
2021/08/04 09:00:50;;;;;;;5.35;1.88;;;26.70;41.50;;;;;;21118604;27;82196;-66
2021/08/04 09:10:53;;;;;;;3.03;1.38;;;26.70;42.00;;;;;;21117915;27;82240;-65
2021/08/04 09:20:55;;;;;;;7.72;2.15;;;27.10;41.30;;;;;;21114598;27;81678;-71
2021/08/04 09:31:02;;;;;;;5.03;1.42;;;27.40;40.70;;;;;;21116911;27;81035;-65
2021/08/04 09:41:20;;;;;;;3.33;1.48;;;27.60;40.10;;;;;;21113154;27;80734;-65
2021/08/04 09:51:22;;;;;;;2.80;1.33;;;27.80;39.50;;;;;;21123553;27;81557;-67
2021/08/04 10:01:39;;;;;;;4.05;1.42;;;28.20;40.10;;;;;;21129189;27;81365;-70
2021/08/04 10:11:50;;;;;;;5.03;1.60;;;28.30;40.30;;;;;;21113041;27;82157;-67
2021/08/04 10:21:55;;;;;;;4.50;1.60;;;29.00;38.50;;;;;;21110487;27;81178;-65
2021/08/04 10:31:57;;;;;;;4.78;1.65;;;29.30;37.60;;;;;;21129740;27;81048;-67
2021/08/04 10:42:02;;;;;;;3.35;1.60;;;30.30;36.00;;;;;;21111972;27;81227;-72
2021/08/04 10:52:29;;;;;;;4.35;1.88;;;31.40;34.30;;;;;;21130500;27;81193;-68
2021/08/04 11:02:32;;;;;;;3.95;1.38;;;30.30;35.90;;;;;;21068446;27;81031;-72
2021/08/04 11:12:34;;;;;;;3.65;1.48;;;35.00;29.30;;;;;;21031898;27;82049;-70
2021/08/04 11:22:39;;;;;;;4.63;1.60;;;35.70;28.10;;;;;;21024007;27;82163;-68
2021/08/04 11:32:42;;;;;;;5.07;1.13;;;35.00;28.80;;;;;;21026892;27;82344;-73
2021/08/04 11:42:54;;;;;;;2.90;1.27;;;33.40;30.30;;;;;;21045797;27;80654;-78
2021/08/04 11:53:06;;;;;;;2.00;0.90;;;37.80;25.30;;;;;;21009120;27;80672;-79
2021/08/04 12:03:18;;;;;;;2.95;0.90;;;42.70;20.20;;;;;;21202889;27;82030;-69
2021/08/04 12:13:21;;;;;;;1.25;0.70;;;44.70;18.40;;;;;;21229915;27;81025;-64
2021/08/04 12:23:23;;;;;;;1.20;0.68;;;45.70;17.80;;;;;;21208972;27;81672;-68
2021/08/04 12:33:37;;;;;;;1.52;0.90;;;48.70;16.10;;;;;;21204838;27;81069;-67
2021/08/04 12:43:43;;;;;;;3.00;1.40;;;47.80;16.70;;;;;;21207561;27;81112;-66
2021/08/04 12:53:54;;;;;;;2.08;0.70;;;49.40;15.70;;;;;;21224996;27;80945;-66
2021/08/04 13:03:56;;;;;;;1.50;1.33;;;51.80;13.80;;;;;;21219846;27;81326;-74
2021/08/04 13:14:03;;;;;;;2.45;1.73;;;52.50;13.80;;;;;;21219703;27;80104;-65
2021/08/04 13:24:33;;;;;;;3.22;2.03;;;53.60;13.00;;;;;;21218063;27;80092;-63
2021/08/04 13:34:35;;;;;;;2.33;2.13;;;53.40;12.90;;;;;;21216334;27;80480;-70
2021/08/04 13:44:37;;;;;;;2.28;2.08;;;54.90;12.30;;;;;;21217310;27;80656;-67
2021/08/04 13:54:39;;;;;;;4.50;3.38;;;54.70;12.40;;;;;;21233959;27;80688;-68
2021/08/04 14:04:41;;;;;;;4.05;3.75;;;56.00;11.50;;;;;;21233198;27;82152;-68
2021/08/04 14:14:43;;;;;;;3.53;3.20;;;56.50;11.70;;;;;;21231120;27;80006;-70
2021/08/04 14:24:45;;;;;;;6.28;4.28;;;55.60;11.60;;;;;;21211134;27;81282;-70
2021/08/04 14:34:48;;;;;;;5.72;5.22;;;57.10;10.90;;;;;;21212605;27;80650;-67
2021/08/04 14:44:49;;;;;;;4.80;4.40;;;57.00;9.90;;;;;;21210560;27;80066;-68
2021/08/04 14:54:51;;;;;;;5.65;5.15;;;55.90;10.50;;;;;;21228430;27;80515;-67
2021/08/04 15:04:59;;;;;;;4.70;4.30;;;56.80;10.40;;;;;;21210630;27;80587;-67
2021/08/04 15:15:04;;;;;;;3.47;3.13;;;50.40;12.10;;;;;;21210372;27;81972;-70
2021/08/04 15:25:08;;;;;;;6.28;2.97;;;43.00;15.00;;;;;;21227285;27;79965;-68
2021/08/04 15:35:12;;;;;;;4.30;3.40;;;40.60;16.60;;;;;;21206319;27;81015;-71
2021/08/04 15:45:14;;;;;;;3.25;2.42;;;38.00;18.40;;;;;;21225801;27;80917;-67
2021/08/04 15:55:16;;;;;;;3.13;2.72;;;37.00;19.20;;;;;;21225109;27;80782;-70
2021/08/04 16:05:18;;;;;;;3.58;2.65;;;36.90;19.30;;;;;;21206127;27;80560;-66
2021/08/04 16:15:20;;;;;;;4.25;3.20;;;37.10;19.40;;;;;;21206468;27;80791;-66
2021/08/04 16:25:22;;;;;;;3.53;3.15;;;39.50;18.00;;;;;;21223655;27;80068;-68
2021/08/04 16:35:24;;;;;;;4.43;2.80;;;42.90;15.60;;;;;;21205557;27;80767;-68
2021/08/04 16:45:25;;;;;;;3.35;2.70;;;40.60;17.20;;;;;;21209973;27;80086;-68
2021/08/04 16:55:27;;;;;;;3.53;2.60;;;37.90;18.20;;;;;;21217765;27;80723;-70
2021/08/04 17:05:29;;;;;;;3.75;2.30;;;36.40;19.60;;;;;;21235907;27;80785;-67
2021/08/04 17:15:31;;;;;;;4.28;2.10;;;36.00;19.20;;;;;;21217185;27;80036;-67
2021/08/04 17:25:33;;;;;;;6.47;2.22;;;36.10;19.20;;;;;;21216521;27;81013;-68
2021/08/04 17:35:35;;;;;;;3.10;1.88;;;35.40;19.90;;;;;;21215404;27;81736;-68
2021/08/04 17:45:37;;;;;;;2.67;2.20;;;34.90;20.10;;;;;;21215353;27;80525;-67
2021/08/04 17:55:39;;;;;;;3.08;1.90;;;34.40;20.60;;;;;;21231317;27;80867;-67
2021/08/04 18:05:41;;;;;;;5.07;2.70;;;36.40;19.10;;;;;;21232971;27;81766;-67
2021/08/04 18:15:43;;;;;;;2.83;1.80;;;;;;;;;;21213193;27;80870;-67
2021/08/04 18:25:45;;;;;;;3.40;1.63;;;39.40;17.40;;;;;;21213500;27;80250;-70
2021/08/04 18:35:48;;;;;;;2.60;1.83;;;36.40;19.50;;;;;;21231224;27;81035;-68
2021/08/04 18:46:16;;;;;;;2.08;1.13;;;35.10;20.30;;;;;;21215287;27;80048;-66
2021/08/04 18:56:17;;;;;;;3.67;1.40;;;33.70;21.50;;;;;;21211212;27;80834;-67
2021/08/04 19:06:20;;;;;;;2.58;1.48;;;32.50;23.00;;;;;;21210062;27;80697;-70
2021/08/04 19:16:23;;;;;;;3.25;1.38;;;31.70;24.80;;;;;;21229578;27;80597;-67
2021/08/04 19:26:27;;;;;;;5.40;1.50;;;31.30;25.60;;;;;;21209780;27;80184;-68
2021/08/04 19:36:30;;;;;;;3.65;1.40;;;30.90;25.40;;;;;;21208990;27;81003;-67
2021/08/04 19:46:32;;;;;;;4.47;1.77;;;30.60;25.80;;;;;;21207900;27;81082;-68
2021/08/04 19:56:34;;;;;;;8.02;1.88;;;30.30;26.40;;;;;;21207922;27;81637;-68
2021/08/04 20:06:38;;;;;;;3.92;1.92;;;30.00;26.90;;;;;;21208440;27;80841;-70
2021/08/04 20:16:40;;;;;;;5.35;1.58;;;29.80;26.90;;;;;;21208343;27;82803;-66
2021/08/04 20:26:43;;;;;;;4.93;1.83;;;29.50;27.10;;;;;;21221637;27;81091;-67
2021/08/04 20:36:45;;;;;;;4.95;1.80;;;29.40;27.60;;;;;;21238020;27;81146;-66
2021/08/04 20:46:48;;;;;;;3.97;1.80;;;29.10;28.20;;;;;;21222100;27;83745;-66
2021/08/04 20:57:16;;;;;;;5.25;2.53;;;28.90;28.10;;;;;;21217811;27;80845;-67
2021/08/04 21:07:18;;;;;;;5.03;1.90;;;28.80;28.60;;;;;;21220680;27;84280;-67
2021/08/04 21:17:23;;;;;;;3.47;1.40;;;28.50;28.70;;;;;;21217979;27;81404;-66
2021/08/04 21:27:27;;;;;;;5.35;1.90;;;28.40;28.80;;;;;;21217045;27;80936;-67
2021/08/04 21:37:34;;;;;;;4.15;1.77;;;28.20;29.10;;;;;;21217183;27;81382;-71
2021/08/04 21:47:43;;;;;;;5.03;2.05;;;28.00;29.30;;;;;;21219521;27;81021;-65
2021/08/04 21:57:47;;;;;;;6.22;2.00;;;27.90;29.60;;;;;;21215912;27;81018;-67
2021/08/04 22:07:52;;;;;;;4.35;2.00;;;27.70;30.10;;;;;;21215354;27;81622;-67
2021/08/04 22:17:54;;;;;;;6.38;2.20;;;27.50;31.00;;;;;;21215198;27;79898;-71
2021/08/04 22:27:57;;;;;;;7.72;2.65;;;27.40;31.60;;;;;;21212990;27;80635;-68
2021/08/04 22:38:01;;;;;;;3.83;2.08;;;27.10;32.50;;;;;;21213303;27;79957;-67
2021/08/04 22:48:18;;;;;;;5.78;1.90;;;27.00;32.50;;;;;;21229604;27;80594;-67
2021/08/04 22:58:20;;;;;;;3.40;1.80;;;26.90;31.60;;;;;;21210044;27;79857;-67
2021/08/04 23:08:22;;;;;;;5.03;1.77;;;26.70;31.30;;;;;;21209228;27;80347;-66
2021/08/04 23:18:24;;;;;;;3.22;1.77;;;26.60;30.30;;;;;;21209191;27;80894;-67
2021/08/04 23:28:25;;;;;;;3.15;1.60;;;26.50;29.10;;;;;;21208501;27;80141;-67
2021/08/04 23:38:27;;;;;;;6.43;1.52;;;26.40;28.30;;;;;;21207413;27;80759;-70
2021/08/04 23:48:29;;;;;;;3.17;1.55;;;26.40;28.10;;;;;;21207201;27;81071;-66
2021/08/04 23:58:31;;;;;;;3.40;1.73;;;26.30;28.00;;;;;;21235972;27;80622;-70
